createdAt,value
2017-08-11T00:00:18.146Z,0
2017-08-11T00:01:19.714Z,0
2017-08-11T00:02:21.249Z,0
2017-08-11T00:03:22.713Z,0
2017-08-11T00:04:24.228Z,0
2017-08-11T00:05:25.809Z,0
2017-08-11T00:06:27.371Z,0
2017-08-11T00:07:28.933Z,0
2017-08-11T00:08:30.503Z,0
2017-08-11T00:09:32.031Z,0
2017-08-11T00:10:33.579Z,0
2017-08-11T00:11:35.127Z,0
2017-08-11T00:12:36.652Z,0
2017-08-11T00:13:38.182Z,0
2017-08-11T00:14:39.708Z,0
2017-08-11T00:15:41.228Z,0
2017-08-11T00:16:42.781Z,0
2017-08-11T00:17:44.317Z,0
2017-08-11T00:18:45.866Z,0
2017-08-11T00:19:47.399Z,0
2017-08-11T00:20:48.938Z,0
2017-08-11T00:21:50.471Z,0
2017-08-11T00:22:52.083Z,0
2017-08-11T00:23:53.597Z,0
2017-08-11T00:24:55.167Z,0
2017-08-11T00:25:56.716Z,0
2017-08-11T00:26:58.219Z,0
2017-08-11T00:27:59.752Z,0
2017-08-11T00:29:01.301Z,0
2017-08-11T00:30:02.872Z,0
2017-08-11T00:31:04.408Z,0
2017-08-11T00:32:06.037Z,0
2017-08-11T00:33:07.571Z,0
2017-08-11T00:34:09.070Z,0
2017-08-11T00:35:10.639Z,0
2017-08-11T00:36:12.150Z,0
2017-08-11T00:37:13.746Z,0
2017-08-11T00:38:15.251Z,0
2017-08-11T00:39:16.775Z,0
2017-08-11T00:40:18.273Z,0
2017-08-11T00:41:19.851Z,0
2017-08-11T00:42:21.417Z,0
2017-08-11T00:43:22.939Z,0
2017-08-11T00:44:24.497Z,0
2017-08-11T00:45:26.009Z,0
2017-08-11T00:46:27.601Z,0
2017-08-11T00:47:29.086Z,0
2017-08-11T00:48:30.606Z,0
2017-08-11T00:49:32.129Z,0
2017-08-11T00:50:33.663Z,0
2017-08-11T00:51:35.153Z,0
2017-08-11T00:52:36.691Z,0
2017-08-11T00:53:38.213Z,0
2017-08-11T00:54:39.758Z,0
2017-08-11T00:55:41.303Z,0
2017-08-11T00:56:42.814Z,0
2017-08-11T00:57:44.333Z,0
2017-08-11T00:58:45.911Z,0
2017-08-11T00:59:47.441Z,0
2017-08-11T01:00:48.945Z,0
2017-08-11T01:01:50.527Z,0
2017-08-11T01:02:52.052Z,0
2017-08-11T01:03:53.561Z,0
2017-08-11T01:04:55.043Z,0
2017-08-11T01:05:56.574Z,0
2017-08-11T01:06:58.198Z,0
2017-08-11T01:07:59.834Z,0
2017-08-11T01:09:01.426Z,0
2017-08-11T01:10:02.967Z,0
2017-08-11T01:11:04.502Z,0
2017-08-11T01:12:06.030Z,0
2017-08-11T01:13:07.608Z,0
2017-08-11T01:14:09.165Z,0
2017-08-11T01:15:10.691Z,0
2017-08-11T01:16:12.188Z,0
2017-08-11T01:17:13.803Z,0
2017-08-11T01:18:15.340Z,0
2017-08-11T01:19:16.852Z,0
2017-08-11T01:20:18.414Z,0
2017-08-11T01:21:19.954Z,0
2017-08-11T01:22:21.463Z,0
2017-08-11T01:23:22.963Z,0
2017-08-11T01:24:24.605Z,0
2017-08-11T01:25:26.117Z,0
2017-08-11T01:26:27.598Z,0
2017-08-11T01:27:29.109Z,0
2017-08-11T01:28:30.677Z,0
2017-08-11T01:29:32.156Z,0
2017-08-11T01:30:33.695Z,0
2017-08-11T01:31:35.294Z,0
2017-08-11T01:32:36.866Z,0
2017-08-11T01:33:38.329Z,0
2017-08-11T01:34:39.862Z,0
2017-08-11T01:35:41.451Z,0
2017-08-11T01:36:42.957Z,0
2017-08-11T01:37:44.521Z,0
2017-08-11T01:38:46.073Z,0
2017-08-11T01:39:47.587Z,0
2017-08-11T01:40:49.125Z,0
2017-08-11T01:41:50.714Z,0
2017-08-11T01:42:52.167Z,0
2017-08-11T01:43:53.777Z,0
2017-08-11T01:44:55.255Z,0
2017-08-11T01:45:56.847Z,0
2017-08-11T01:46:58.386Z,0
2017-08-11T01:47:59.880Z,0
2017-08-11T01:49:01.407Z,0
2017-08-11T01:50:03.000Z,0
2017-08-11T01:51:04.450Z,0
2017-08-11T01:52:05.956Z,0
2017-08-11T01:53:07.537Z,0
2017-08-11T01:54:09.083Z,0
2017-08-11T01:55:10.631Z,0
2017-08-11T01:56:12.193Z,0
2017-08-11T01:57:13.703Z,0
2017-08-11T01:58:15.224Z,0
2017-08-11T01:59:16.719Z,0
2017-08-11T02:00:18.231Z,0
2017-08-11T02:01:19.742Z,0
2017-08-11T02:02:21.244Z,0
2017-08-11T02:03:22.734Z,0
2017-08-11T02:04:24.357Z,0
2017-08-11T02:05:25.913Z,0
2017-08-11T02:06:27.468Z,0
2017-08-11T02:07:29.017Z,0
2017-08-11T02:08:30.524Z,0
2017-08-11T02:09:32.060Z,0
2017-08-11T02:10:33.520Z,0
2017-08-11T02:11:35.029Z,0
2017-08-11T02:12:36.522Z,0
2017-08-11T02:13:38.035Z,0
2017-08-11T02:14:39.512Z,0
2017-08-11T02:15:41.071Z,0
2017-08-11T02:16:42.646Z,0
2017-08-11T02:17:44.188Z,0
2017-08-11T02:18:45.684Z,0
2017-08-11T02:19:47.160Z,0
2017-08-11T02:20:48.682Z,0
2017-08-11T02:21:50.261Z,0
2017-08-11T02:22:51.851Z,0
2017-08-11T02:23:53.403Z,0
2017-08-11T02:24:54.945Z,0
2017-08-11T02:25:56.524Z,0
2017-08-11T02:26:58.075Z,0
2017-08-11T02:27:59.592Z,0
2017-08-11T02:29:01.160Z,0
2017-08-11T02:30:02.656Z,0
2017-08-11T02:31:04.175Z,0
2017-08-11T02:32:05.734Z,0
2017-08-11T02:33:07.263Z,0
2017-08-11T02:34:08.796Z,0
2017-08-11T02:35:10.262Z,0
2017-08-11T02:36:11.783Z,0
2017-08-11T02:37:13.319Z,0
2017-08-11T02:38:14.839Z,0
2017-08-11T02:39:16.381Z,0
2017-08-11T02:40:17.948Z,0
2017-08-11T02:41:19.462Z,0
2017-08-11T02:42:20.981Z,0
2017-08-11T02:43:22.494Z,0
2017-08-11T02:44:24.037Z,0
2017-08-11T02:45:25.592Z,0
2017-08-11T02:46:27.105Z,0
2017-08-11T02:47:28.707Z,0
2017-08-11T02:48:30.218Z,0
2017-08-11T02:49:31.736Z,0
2017-08-11T02:50:33.315Z,0
2017-08-11T02:51:34.954Z,0
2017-08-11T02:52:36.470Z,0
2017-08-11T02:53:38.002Z,0
2017-08-11T02:54:39.522Z,0
2017-08-11T02:55:40.964Z,0
2017-08-11T02:56:42.487Z,0
2017-08-11T02:57:43.952Z,0
2017-08-11T02:58:45.416Z,0
2017-08-11T02:59:46.971Z,0
2017-08-11T03:00:48.525Z,0
2017-08-11T03:01:50.049Z,0
2017-08-11T03:02:51.648Z,0
2017-08-11T03:03:53.168Z,0
2017-08-11T03:04:54.737Z,0
2017-08-11T03:05:56.277Z,0
2017-08-11T03:06:57.795Z,0
2017-08-11T03:07:59.275Z,0
2017-08-11T03:09:00.858Z,0
2017-08-11T03:10:02.437Z,0
2017-08-11T03:11:03.895Z,0
2017-08-11T03:12:05.364Z,0
2017-08-11T03:13:06.880Z,0
2017-08-11T03:14:08.490Z,0
2017-08-11T03:15:10.006Z,0
2017-08-11T03:16:11.527Z,0
2017-08-11T03:17:13.092Z,0
2017-08-11T03:18:14.655Z,0
2017-08-11T03:19:16.212Z,0
2017-08-11T03:20:17.739Z,0
2017-08-11T03:21:19.446Z,0
2017-08-11T03:22:20.987Z,0
2017-08-11T03:23:22.464Z,0
2017-08-11T03:24:24.030Z,0
2017-08-11T03:25:25.532Z,0
2017-08-11T03:26:27.041Z,0
2017-08-11T03:27:28.578Z,0
2017-08-11T03:28:30.093Z,0
2017-08-11T03:29:31.597Z,0
2017-08-11T03:30:33.110Z,4
2017-08-11T03:31:34.665Z,4
2017-08-11T03:32:36.192Z,0
2017-08-11T03:33:37.700Z,4
2017-08-11T03:34:39.212Z,4
2017-08-11T03:35:40.725Z,8
2017-08-11T03:36:42.195Z,4
2017-08-11T03:37:43.840Z,8
2017-08-11T03:38:45.348Z,8
2017-08-11T03:39:46.902Z,8
2017-08-11T03:40:48.404Z,12
2017-08-11T03:41:49.917Z,12
2017-08-11T03:42:51.457Z,12
2017-08-11T03:43:53.111Z,12
2017-08-11T03:44:54.575Z,8
2017-08-11T03:45:56.064Z,8
2017-08-11T03:46:57.566Z,12
2017-08-11T03:47:59.156Z,12
2017-08-11T03:49:00.711Z,12
2017-08-11T03:50:02.230Z,8
2017-08-11T03:51:03.928Z,12
2017-08-11T03:52:05.464Z,12
2017-08-11T03:53:06.981Z,12
2017-08-11T03:54:08.536Z,16
2017-08-11T03:55:10.137Z,16
2017-08-11T03:56:11.686Z,16
2017-08-11T03:57:13.231Z,20
2017-08-11T03:58:14.741Z,20
2017-08-11T03:59:16.360Z,24
2017-08-11T04:00:17.962Z,20
2017-08-11T04:01:19.480Z,24
2017-08-11T04:02:20.965Z,28
2017-08-11T04:03:22.512Z,28
2017-08-11T04:04:24.060Z,36
2017-08-11T04:05:25.561Z,36
2017-08-11T04:06:27.058Z,44
2017-08-11T04:07:28.494Z,48
2017-08-11T04:08:29.968Z,52
2017-08-11T04:09:31.416Z,60
2017-08-11T04:10:32.867Z,68
2017-08-11T04:11:34.318Z,76
2017-08-11T04:12:35.747Z,84
2017-08-11T04:13:37.197Z,84
2017-08-11T04:14:38.906Z,100
2017-08-11T04:15:40.397Z,104
2017-08-11T04:16:41.910Z,116
2017-08-11T04:17:43.434Z,132
2017-08-11T04:18:44.928Z,148
2017-08-11T04:19:46.446Z,164
2017-08-11T04:20:47.963Z,164
2017-08-11T04:21:49.434Z,180
2017-08-11T04:22:51.002Z,160
2017-08-11T04:23:52.567Z,184
2017-08-11T04:24:54.078Z,196
2017-08-11T04:25:55.698Z,220
2017-08-11T04:26:57.339Z,260
2017-08-11T04:27:58.857Z,276
2017-08-11T04:29:00.395Z,272
2017-08-11T04:30:01.954Z,284
2017-08-11T04:31:03.531Z,288
2017-08-11T04:32:05.166Z,272
2017-08-11T04:33:06.612Z,264
2017-08-11T04:34:08.174Z,256
2017-08-11T04:35:09.722Z,300
2017-08-11T04:36:11.280Z,316
2017-08-11T04:37:12.766Z,332
2017-08-11T04:38:14.352Z,300
2017-08-11T04:39:15.861Z,280
2017-08-11T04:40:17.393Z,296
2017-08-11T04:41:18.911Z,328
2017-08-11T04:42:20.439Z,340
2017-08-11T04:43:21.964Z,324
2017-08-11T04:44:23.490Z,284
2017-08-11T04:45:25.008Z,284
2017-08-11T04:46:26.502Z,284
2017-08-11T04:47:28.034Z,276
2017-08-11T04:48:29.612Z,304
2017-08-11T04:49:31.089Z,340
2017-08-11T04:50:32.634Z,344
2017-08-11T04:51:34.168Z,356
2017-08-11T04:52:35.661Z,368
2017-08-11T04:53:37.157Z,376
2017-08-11T04:54:38.768Z,392
2017-08-11T04:55:40.274Z,412
2017-08-11T04:56:41.803Z,464
2017-08-11T04:57:43.349Z,512
2017-08-11T04:58:44.907Z,560
2017-08-11T04:59:46.401Z,640
2017-08-11T05:00:47.948Z,708
2017-08-11T05:01:49.501Z,744
2017-08-11T05:02:51.063Z,748
2017-08-11T05:03:52.623Z,744
2017-08-11T05:04:54.140Z,756
2017-08-11T05:05:55.631Z,772
2017-08-11T05:06:57.219Z,788
2017-08-11T05:07:58.764Z,836
2017-08-11T05:09:00.432Z,900
2017-08-11T05:10:02.021Z,948
2017-08-11T05:11:03.565Z,964
2017-08-11T05:12:05.124Z,912
2017-08-11T05:13:06.789Z,856
2017-08-11T05:14:08.428Z,824
2017-08-11T05:15:09.986Z,796
2017-08-11T05:16:11.581Z,780
2017-08-11T05:17:13.121Z,772
2017-08-11T05:18:14.682Z,764
2017-08-11T05:19:16.538Z,792
2017-08-11T05:20:18.252Z,860
2017-08-11T05:21:19.801Z,932
2017-08-11T05:22:21.548Z,1012
2017-08-11T05:23:23.411Z,1116
2017-08-11T05:24:24.961Z,1228
2017-08-11T05:25:26.542Z,1296
2017-08-11T05:26:28.072Z,1316
2017-08-11T05:27:29.902Z,1244
2017-08-11T05:28:31.426Z,1212
2017-08-11T05:29:33.046Z,1256
2017-08-11T05:30:34.592Z,1232
2017-08-11T05:31:36.150Z,1224
2017-08-11T05:32:37.757Z,1236
2017-08-11T05:33:39.406Z,1224
2017-08-11T05:34:40.895Z,1212
2017-08-11T05:35:42.505Z,1260
2017-08-11T05:36:44.031Z,1380
2017-08-11T05:37:45.555Z,1536
2017-08-11T05:38:47.120Z,1680
2017-08-11T05:39:48.714Z,1844
2017-08-11T05:40:50.282Z,2012
2017-08-11T05:41:51.844Z,2144
2017-08-11T05:42:53.378Z,2272
2017-08-11T05:43:54.893Z,2504
2017-08-11T05:44:56.404Z,2628
2017-08-11T05:45:57.948Z,2440
2017-08-11T05:46:59.478Z,2416
2017-08-11T05:48:01.015Z,2304
2017-08-11T05:49:03.056Z,2140
2017-08-11T05:50:04.584Z,1864
2017-08-11T05:51:06.141Z,1700
2017-08-11T05:52:07.727Z,1640
2017-08-11T05:53:09.344Z,1576
2017-08-11T05:54:11.034Z,1460
2017-08-11T05:55:12.576Z,1436
2017-08-11T05:56:14.083Z,1456
2017-08-11T05:57:15.748Z,1448
2017-08-11T05:58:17.393Z,1456
2017-08-11T05:59:18.951Z,1464
2017-08-11T06:00:20.604Z,1384
2017-08-11T06:01:22.236Z,1140
2017-08-11T06:02:23.716Z,896
2017-08-11T06:03:25.230Z,904
2017-08-11T06:04:26.773Z,1152
2017-08-11T06:05:28.275Z,1260
2017-08-11T06:06:29.780Z,1240
2017-08-11T06:07:31.283Z,1124
2017-08-11T06:08:32.869Z,1020
2017-08-11T06:09:34.462Z,1072
2017-08-11T06:10:35.973Z,1144
2017-08-11T06:11:37.492Z,1348
2017-08-11T06:12:39.058Z,1372
2017-08-11T06:13:40.668Z,1436
2017-08-11T06:14:42.247Z,1488
2017-08-11T06:15:43.798Z,1588
2017-08-11T06:16:45.330Z,1596
2017-08-11T06:17:46.943Z,1336
2017-08-11T06:18:48.482Z,1280
2017-08-11T06:19:49.942Z,1344
2017-08-11T06:20:51.541Z,1396
2017-08-11T06:21:53.256Z,1288
2017-08-11T06:22:55.665Z,1116
2017-08-11T06:23:57.626Z,964
2017-08-11T06:24:59.222Z,912
2017-08-11T06:26:00.863Z,972
2017-08-11T06:27:02.388Z,948
2017-08-11T06:28:03.995Z,920
2017-08-11T06:29:05.522Z,952
2017-08-11T06:30:07.038Z,1052
2017-08-11T06:31:08.543Z,1132
2017-08-11T06:32:10.080Z,1200
2017-08-11T06:33:11.645Z,1408
2017-08-11T06:34:13.113Z,1736
2017-08-11T06:35:14.829Z,1892
2017-08-11T06:36:16.386Z,1752
2017-08-11T06:37:17.898Z,1696
2017-08-11T06:38:19.381Z,1608
2017-08-11T06:39:20.934Z,1492
2017-08-11T06:40:22.569Z,1396
2017-08-11T06:41:24.092Z,1380
2017-08-11T06:42:25.560Z,1460
2017-08-11T06:43:27.083Z,1484
2017-08-11T06:44:28.577Z,1456
2017-08-11T06:45:30.096Z,1380
2017-08-11T06:46:31.661Z,1312
2017-08-11T06:47:33.186Z,1276
2017-08-11T06:48:34.739Z,1248
2017-08-11T06:49:36.293Z,1168
2017-08-11T06:50:37.843Z,1168
2017-08-11T06:51:39.407Z,1272
2017-08-11T06:52:40.944Z,1400
2017-08-11T06:53:42.529Z,1576
2017-08-11T06:54:44.136Z,1604
2017-08-11T06:55:45.716Z,1536
2017-08-11T06:56:47.258Z,1492
2017-08-11T06:57:48.912Z,1548
2017-08-11T06:58:50.492Z,1548
2017-08-11T06:59:52.063Z,1604
2017-08-11T07:00:53.625Z,1824
2017-08-11T07:01:55.163Z,2172
2017-08-11T07:02:56.710Z,2704
2017-08-11T07:03:58.230Z,3360
2017-08-11T07:04:59.787Z,3700
2017-08-11T07:06:01.553Z,3728
2017-08-11T07:07:03.212Z,3984
2017-08-11T07:08:06.678Z,3960
2017-08-11T07:09:07.863Z,4156
2017-08-11T07:10:09.388Z,4248
2017-08-11T07:11:11.019Z,4000
2017-08-11T07:12:12.512Z,3960
2017-08-11T07:13:14.067Z,4012
2017-08-11T07:14:15.605Z,3864
2017-08-11T07:15:17.280Z,3780
2017-08-11T07:16:18.823Z,3604
2017-08-11T07:17:20.340Z,3564
2017-08-11T07:18:21.860Z,3260
2017-08-11T07:19:23.528Z,2872
2017-08-11T07:20:25.067Z,2360
2017-08-11T07:21:26.605Z,1996
2017-08-11T07:22:28.156Z,1856
2017-08-11T07:23:29.722Z,1756
2017-08-11T07:24:31.275Z,1676
2017-08-11T07:25:32.788Z,1644
2017-08-11T07:26:34.342Z,1684
2017-08-11T07:27:36.074Z,1736
2017-08-11T07:28:37.694Z,1676
2017-08-11T07:29:39.253Z,1536
2017-08-11T07:30:40.848Z,1376
2017-08-11T07:31:42.429Z,1240
2017-08-11T07:32:44.126Z,1136
2017-08-11T07:33:45.893Z,1064
2017-08-11T07:34:47.532Z,1044
2017-08-11T07:35:49.109Z,1024
2017-08-11T07:36:50.868Z,1008
2017-08-11T07:37:52.418Z,1028
2017-08-11T07:38:54.020Z,1060
2017-08-11T07:39:55.589Z,1100
2017-08-11T07:40:57.167Z,1144
2017-08-11T07:41:58.728Z,1192
2017-08-11T07:43:00.255Z,1232
2017-08-11T07:44:01.832Z,1240
2017-08-11T07:45:03.419Z,1188
2017-08-11T07:46:04.952Z,1144
2017-08-11T07:47:06.538Z,1104
2017-08-11T07:48:08.081Z,1176
2017-08-11T07:49:09.680Z,1292
2017-08-11T07:50:11.338Z,1388
2017-08-11T07:51:12.876Z,1428
2017-08-11T07:52:14.511Z,1452
2017-08-11T07:53:15.973Z,1496
2017-08-11T07:54:17.532Z,1596
2017-08-11T07:55:19.005Z,1760
2017-08-11T07:56:20.595Z,1928
2017-08-11T07:57:22.112Z,2160
2017-08-11T07:58:23.750Z,2456
2017-08-11T07:59:25.273Z,2740
2017-08-11T08:00:26.836Z,3092
2017-08-11T08:01:28.359Z,3280
2017-08-11T08:02:29.821Z,3560
2017-08-11T08:03:31.348Z,3980
2017-08-11T08:04:32.920Z,4032
2017-08-11T08:05:34.428Z,4116
2017-08-11T08:06:35.931Z,4056
2017-08-11T08:07:37.462Z,4048
2017-08-11T08:08:38.909Z,4068
2017-08-11T08:09:40.331Z,4188
2017-08-11T08:10:41.856Z,4432
2017-08-11T08:11:43.365Z,4672
2017-08-11T08:12:44.810Z,4740
2017-08-11T08:13:46.320Z,4788
2017-08-11T08:14:47.837Z,4988
2017-08-11T08:15:49.350Z,5100
2017-08-11T08:16:50.829Z,4680
2017-08-11T08:17:52.290Z,3928
2017-08-11T08:18:53.693Z,4032
2017-08-11T08:19:55.135Z,4456
2017-08-11T08:20:56.570Z,4860
2017-08-11T08:21:58.003Z,5192
2017-08-11T08:22:59.426Z,5092
2017-08-11T08:24:00.850Z,5116
2017-08-11T08:25:02.271Z,4908
2017-08-11T08:26:03.752Z,4644
2017-08-11T08:27:05.164Z,4436
2017-08-11T08:28:06.588Z,4256
2017-08-11T08:29:08.016Z,4180
2017-08-11T08:30:09.453Z,4244
2017-08-11T08:31:10.936Z,4436
2017-08-11T08:32:12.404Z,4660
2017-08-11T08:33:13.875Z,4836
2017-08-11T08:34:15.301Z,4840
2017-08-11T08:35:16.718Z,4756
2017-08-11T08:36:18.177Z,4524
2017-08-11T08:37:19.669Z,4476
2017-08-11T08:38:21.136Z,4436
2017-08-11T08:39:22.688Z,4340
2017-08-11T08:40:24.293Z,4272
2017-08-11T08:41:25.778Z,4108
2017-08-11T08:42:27.270Z,3808
2017-08-11T08:43:28.794Z,3424
2017-08-11T08:44:30.289Z,3040
2017-08-11T08:45:31.772Z,3132
2017-08-11T08:46:33.278Z,3328
2017-08-11T08:47:34.862Z,3220
2017-08-11T08:48:36.513Z,3208
2017-08-11T08:49:38.031Z,3260
2017-08-11T08:50:39.633Z,2984
2017-08-11T08:51:41.198Z,3216
2017-08-11T08:52:42.718Z,3288
2017-08-11T08:53:44.330Z,3260
2017-08-11T08:54:45.920Z,3376
2017-08-11T08:55:47.437Z,3532
2017-08-11T08:56:49.045Z,3712
2017-08-11T08:57:50.676Z,3996
2017-08-11T08:58:52.229Z,4040
2017-08-11T08:59:53.814Z,4300
2017-08-11T09:00:55.461Z,4388
2017-08-11T09:01:57.192Z,4408
2017-08-11T09:02:58.724Z,4468
2017-08-11T09:04:00.219Z,4556
2017-08-11T09:05:01.696Z,4656
2017-08-11T09:06:03.182Z,4668
2017-08-11T09:07:04.669Z,4704
2017-08-11T09:08:06.168Z,4836
2017-08-11T09:09:07.653Z,5040
2017-08-11T09:10:09.293Z,5264
2017-08-11T09:11:10.802Z,5336
2017-08-11T09:12:12.285Z,5304
2017-08-11T09:13:13.866Z,5188
2017-08-11T09:14:15.365Z,5088
2017-08-11T09:15:16.823Z,5144
2017-08-11T09:16:18.330Z,5208
2017-08-11T09:17:19.840Z,5180
2017-08-11T09:18:21.359Z,5056
2017-08-11T09:19:22.873Z,4700
2017-08-11T09:20:24.357Z,4532
2017-08-11T09:21:25.896Z,4484
2017-08-11T09:22:27.439Z,4104
2017-08-11T09:23:28.980Z,3672
2017-08-11T09:24:30.522Z,3708
2017-08-11T09:25:32.044Z,4144
2017-08-11T09:26:33.586Z,4236
2017-08-11T09:27:35.118Z,4072
2017-08-11T09:28:36.585Z,4652
2017-08-11T09:29:38.076Z,4776
2017-08-11T09:30:39.621Z,4912
2017-08-11T09:31:41.156Z,4560
2017-08-11T09:32:42.648Z,4592
2017-08-11T09:33:44.177Z,4552
2017-08-11T09:34:45.693Z,4044
2017-08-11T09:35:47.205Z,3536
2017-08-11T09:36:48.700Z,3152
2017-08-11T09:37:50.229Z,2880
2017-08-11T09:38:51.775Z,2832
2017-08-11T09:39:53.272Z,3296
2017-08-11T09:40:54.805Z,3608
2017-08-11T09:41:56.352Z,4024
2017-08-11T09:42:57.903Z,4756
2017-08-11T09:43:59.479Z,6340
2017-08-11T09:45:01.122Z,7212
2017-08-11T09:46:02.657Z,7724
2017-08-11T09:47:04.205Z,8128
2017-08-11T09:48:05.771Z,8332
2017-08-11T09:49:07.283Z,8332
2017-08-11T09:50:08.853Z,8392
2017-08-11T09:51:10.424Z,9024
2017-08-11T09:52:11.976Z,10152
2017-08-11T09:53:13.596Z,11264
2017-08-11T09:54:15.158Z,11860
2017-08-11T09:55:16.724Z,12448
2017-08-11T09:56:18.293Z,12532
2017-08-11T09:57:19.852Z,12452
2017-08-11T09:58:21.386Z,13420
2017-08-11T09:59:22.952Z,14396
2017-08-11T10:00:24.466Z,14048
2017-08-11T10:01:26.067Z,10972
2017-08-11T10:02:27.677Z,8424
2017-08-11T10:03:29.252Z,6808
2017-08-11T10:04:30.793Z,6156
2017-08-11T10:05:32.357Z,6652
2017-08-11T10:06:33.888Z,6240
2017-08-11T10:07:35.343Z,6920
2017-08-11T10:08:36.853Z,8252
2017-08-11T10:09:38.398Z,8956
2017-08-11T10:10:39.869Z,8600
2017-08-11T10:11:41.368Z,7876
2017-08-11T10:12:42.894Z,7036
2017-08-11T10:13:44.424Z,6800
2017-08-11T10:14:45.923Z,7104
2017-08-11T10:15:47.477Z,6360
2017-08-11T10:16:48.970Z,7400
2017-08-11T10:17:50.495Z,7236
2017-08-11T10:18:52.001Z,8180
2017-08-11T10:19:53.500Z,8116
2017-08-11T10:20:54.966Z,7960
2017-08-11T10:21:56.523Z,7052
2017-08-11T10:22:58.137Z,5568
2017-08-11T10:23:59.677Z,3424
2017-08-11T10:25:01.320Z,3892
2017-08-11T10:26:02.898Z,4368
2017-08-11T10:27:04.484Z,4752
2017-08-11T10:28:06.050Z,4928
2017-08-11T10:29:07.624Z,5800
2017-08-11T10:30:09.168Z,5304
2017-08-11T10:31:10.799Z,4640
2017-08-11T10:32:12.351Z,4280
2017-08-11T10:33:13.879Z,3548
2017-08-11T10:34:15.383Z,3872
2017-08-11T10:35:16.932Z,3992
2017-08-11T10:36:18.509Z,3928
2017-08-11T10:37:20.013Z,3728
2017-08-11T10:38:21.572Z,3516
2017-08-11T10:39:23.145Z,3068
2017-08-11T10:40:24.710Z,2796
2017-08-11T10:41:26.311Z,2996
2017-08-11T10:42:27.873Z,3748
2017-08-11T10:43:29.444Z,5020
2017-08-11T10:44:31.025Z,6308
2017-08-11T10:45:32.630Z,7564
2017-08-11T10:46:34.151Z,7976
2017-08-11T10:47:35.701Z,9080
2017-08-11T10:48:37.268Z,9988
2017-08-11T10:49:38.816Z,12168
2017-08-11T10:50:40.432Z,15736
2017-08-11T10:51:42.020Z,16384
2017-08-11T10:52:43.657Z,13060
2017-08-11T10:53:45.419Z,11820
2017-08-11T10:54:47.025Z,9976
2017-08-11T10:55:48.757Z,9772
2017-08-11T10:56:50.460Z,9044
2017-08-11T10:57:52.183Z,8784
2017-08-11T10:58:53.784Z,8536
2017-08-11T10:59:55.327Z,8576
2017-08-11T11:00:56.937Z,10028
2017-08-11T11:01:58.542Z,9404
2017-08-11T11:03:00.173Z,6904
2017-08-11T11:04:01.774Z,5688
2017-08-11T11:05:05.198Z,5180
2017-08-11T11:06:06.773Z,4568
2017-08-11T11:07:08.309Z,3656
2017-08-11T11:08:09.824Z,4308
2017-08-11T11:09:11.339Z,5176
2017-08-11T11:10:12.900Z,5548
2017-08-11T11:11:14.423Z,5604
2017-08-11T11:12:15.890Z,5528
2017-08-11T11:13:17.407Z,5324
2017-08-11T11:14:18.896Z,4988
2017-08-11T11:15:20.514Z,5696
2017-08-11T11:16:21.981Z,5548
2017-08-11T11:17:23.509Z,5368
2017-08-11T11:18:25.094Z,5720
2017-08-11T11:19:26.628Z,5520
2017-08-11T11:20:28.152Z,5520
2017-08-11T11:21:29.640Z,5588
2017-08-11T11:22:31.183Z,6092
2017-08-11T11:23:32.715Z,5960
2017-08-11T11:24:34.194Z,5692
2017-08-11T11:25:35.762Z,5660
2017-08-11T11:26:37.263Z,5624
2017-08-11T11:27:38.741Z,5080
2017-08-11T11:28:40.281Z,4288
2017-08-11T11:29:41.785Z,3972
2017-08-11T11:30:43.299Z,4276
2017-08-11T11:31:44.903Z,4648
2017-08-11T11:32:46.448Z,4904
2017-08-11T11:33:48.027Z,5100
2017-08-11T11:34:49.525Z,5248
2017-08-11T11:35:51.054Z,5996
2017-08-11T11:36:52.543Z,7056
2017-08-11T11:37:54.074Z,7480
2017-08-11T11:38:55.650Z,7856
2017-08-11T11:39:57.145Z,8292
2017-08-11T11:40:58.669Z,8860
2017-08-11T11:42:00.167Z,9536
2017-08-11T11:43:01.710Z,9920
2017-08-11T11:44:03.309Z,9768
2017-08-11T11:45:04.853Z,9372
2017-08-11T11:46:06.374Z,8772
2017-08-11T11:47:07.856Z,8024
2017-08-11T11:48:09.401Z,7280
2017-08-11T11:49:10.916Z,6636
2017-08-11T11:50:12.446Z,6104
2017-08-11T11:51:14.030Z,5428
2017-08-11T11:52:15.563Z,4668
2017-08-11T11:53:17.079Z,4096
2017-08-11T11:54:18.597Z,3692
2017-08-11T11:55:20.123Z,3504
2017-08-11T11:56:21.659Z,3484
2017-08-11T11:57:23.203Z,3572
2017-08-11T11:58:24.747Z,3712
2017-08-11T11:59:26.266Z,3760
2017-08-11T12:00:27.751Z,3700
2017-08-11T12:01:29.286Z,3452
2017-08-11T12:02:30.864Z,2956
2017-08-11T12:03:32.359Z,2308
2017-08-11T12:04:33.925Z,1880
2017-08-11T12:05:35.417Z,1632
2017-08-11T12:06:36.908Z,1468
2017-08-11T12:07:38.380Z,1336
2017-08-11T12:08:39.869Z,1184
2017-08-11T12:09:41.384Z,1004
2017-08-11T12:10:42.898Z,876
2017-08-11T12:11:44.482Z,768
2017-08-11T12:12:45.980Z,784
2017-08-11T12:13:47.541Z,848
2017-08-11T12:14:49.069Z,884
2017-08-11T12:15:50.628Z,912
2017-08-11T12:16:52.265Z,920
2017-08-11T12:17:53.796Z,900
2017-08-11T12:18:55.334Z,888
2017-08-11T12:19:56.855Z,932
2017-08-11T12:20:58.396Z,988
2017-08-11T12:21:59.950Z,1036
2017-08-11T12:23:01.454Z,1060
2017-08-11T12:24:03.016Z,1084
2017-08-11T12:25:04.560Z,1148
2017-08-11T12:26:06.063Z,1292
2017-08-11T12:27:07.646Z,1420
2017-08-11T12:28:09.170Z,1524
2017-08-11T12:29:10.671Z,1644
2017-08-11T12:30:12.160Z,1748
2017-08-11T12:31:13.643Z,1848
2017-08-11T12:32:15.216Z,1984
2017-08-11T12:33:16.790Z,2064
2017-08-11T12:34:18.336Z,2116
2017-08-11T12:35:19.853Z,2164
2017-08-11T12:36:21.394Z,2296
2017-08-11T12:37:22.970Z,2480
2017-08-11T12:38:24.448Z,2804
2017-08-11T12:39:25.983Z,2944
2017-08-11T12:40:27.512Z,2776
2017-08-11T12:41:29.038Z,2424
2017-08-11T12:42:30.568Z,2076
2017-08-11T12:43:32.188Z,1864
2017-08-11T12:44:33.693Z,1816
2017-08-11T12:45:35.221Z,1844
2017-08-11T12:46:36.746Z,2104
2017-08-11T12:47:38.280Z,2352
2017-08-11T12:48:39.859Z,2528
2017-08-11T12:49:41.430Z,2728
2017-08-11T12:50:43.109Z,2988
2017-08-11T12:51:44.655Z,3304
2017-08-11T12:52:46.248Z,3492
2017-08-11T12:53:47.741Z,3344
2017-08-11T12:54:49.542Z,3188
2017-08-11T12:55:51.046Z,3136
2017-08-11T12:56:52.560Z,3176
2017-08-11T12:57:54.028Z,3248
2017-08-11T12:58:55.553Z,3252
2017-08-11T12:59:57.412Z,3272
2017-08-11T13:00:58.949Z,3316
2017-08-11T13:02:00.541Z,3400
2017-08-11T13:03:02.070Z,3436
2017-08-11T13:04:03.610Z,3388
2017-08-11T13:05:05.168Z,3384
2017-08-11T13:06:06.676Z,3592
2017-08-11T13:07:08.191Z,4092
2017-08-11T13:08:09.692Z,4632
2017-08-11T13:09:11.248Z,4880
2017-08-11T13:10:12.788Z,4888
2017-08-11T13:11:14.258Z,4676
2017-08-11T13:12:15.748Z,4252
2017-08-11T13:13:17.313Z,3812
2017-08-11T13:14:18.862Z,3452
2017-08-11T13:15:20.377Z,3248
2017-08-11T13:16:21.905Z,3212
2017-08-11T13:17:23.440Z,3268
2017-08-11T13:18:24.972Z,3244
2017-08-11T13:19:26.654Z,3200
2017-08-11T13:20:28.185Z,3248
2017-08-11T13:21:29.692Z,3396
2017-08-11T13:22:31.260Z,3592
2017-08-11T13:23:32.902Z,3816
2017-08-11T13:24:34.418Z,4036
2017-08-11T13:25:35.985Z,4320
2017-08-11T13:26:37.486Z,4680
2017-08-11T13:27:39.049Z,5188
2017-08-11T13:28:40.547Z,5836
2017-08-11T13:29:42.018Z,6564
2017-08-11T13:30:43.525Z,6884
2017-08-11T13:31:45.104Z,6636
2017-08-11T13:32:46.671Z,6164
2017-08-11T13:33:48.269Z,5716
2017-08-11T13:34:49.770Z,5452
2017-08-11T13:35:51.325Z,5548
2017-08-11T13:36:52.806Z,5976
2017-08-11T13:37:54.338Z,6724
2017-08-11T13:38:55.955Z,7572
2017-08-11T13:39:57.496Z,8080
2017-08-11T13:40:59.009Z,8148
2017-08-11T13:42:00.500Z,8000
2017-08-11T13:43:02.011Z,7704
2017-08-11T13:44:03.499Z,7384
2017-08-11T13:45:04.954Z,7092
2017-08-11T13:46:06.525Z,6912
2017-08-11T13:47:08.075Z,6820
2017-08-11T13:48:09.912Z,6828
2017-08-11T13:49:11.675Z,6948
2017-08-11T13:50:13.134Z,7084
2017-08-11T13:51:14.777Z,7020
2017-08-11T13:52:16.259Z,6660
2017-08-11T13:53:17.855Z,6132
2017-08-11T13:54:19.616Z,5388
2017-08-11T13:55:21.272Z,4368
2017-08-11T13:56:22.835Z,3448
2017-08-11T13:57:24.445Z,2812
2017-08-11T13:58:26.286Z,2336
2017-08-11T13:59:27.812Z,2008
2017-08-11T14:00:29.404Z,1820
2017-08-11T14:01:31.445Z,1756
2017-08-11T14:02:32.877Z,2104
2017-08-11T14:03:34.433Z,2824
2017-08-11T14:04:36.066Z,3732
2017-08-11T14:05:37.636Z,4656